Time;durP1;ratioP1;P1;durP2;ratioP2;P2;SDS_P1;SDS_P2;PMS_P1;PMS_P2;Temp;Humidity;BMP_temperature;BMP_pressure;BME280_temperature;BME280_humidity;BME280_pressure;Samples;Min_cycle;Max_cycle;Signal;HPM_P1;HPM_P2
2022/03/20 00:04:18;;;;;;;28.08;12.60;;;;;;;;;;5048582;28;20052;-89
2022/03/20 00:10:20;;;;;;;26.33;11.75;;;;;;;;;;5060702;28;20045;-89
2022/03/20 00:12:49;;;;;;;27.45;12.85;;;;;;;;;;5056852;28;20125;-89
2022/03/20 00:15:32;;;;;;;32.78;12.23;;;;;;;;;;5055381;28;20462;-90
2022/03/20 00:20:58;;;;;;;24.45;11.73;;;;;;;;;;5030669;28;20055;-90
2022/03/20 00:23:28;;;;;;;33.60;12.45;;;;;;;;;;5053639;28;20088;-90
2022/03/20 00:26:25;;;;;;;25.63;12.00;;;;;;;;;;5052086;28;20124;-91
2022/03/20 00:29:24;;;;;;;32.15;13.10;;;;;;;;;;5048440;28;20095;-91
2022/03/20 00:31:54;;;;;;;25.67;11.52;;;;;;;;;;5028823;28;20041;-90
2022/03/20 00:34:25;;;;;;;30.63;12.27;;;;;;;;;;5054906;28;20060;-90
2022/03/20 00:37:09;;;;;;;27.10;13.23;;;;;;;;;;5032716;28;20048;-90
2022/03/20 00:39:51;;;;;;;29.05;11.48;;;;;;;;;;5049526;28;20152;-90
2022/03/20 00:42:20;;;;;;;34.75;12.48;;;;;;;;;;5056217;28;20508;-90
2022/03/20 00:44:49;;;;;;;31.48;11.85;;;;;;;;;;5078036;28;20099;-92
2022/03/20 00:50:30;;;;;;;26.90;11.55;;;;;;;;;;5048229;28;20032;-90
2022/03/20 00:56:09;;;;;;;30.42;12.02;;;;;;;;;;5052038;28;20044;-90
2022/03/20 00:58:40;;;;;;;33.05;12.90;;;;;;;;;;5056180;28;20072;-90
2022/03/20 01:01:14;;;;;;;29.17;12.27;;;;;;;;;;5050090;28;20495;-91
2022/03/20 01:03:45;;;;;;;25.88;11.07;;;;;;;;;;5050844;28;20136;-90
2022/03/20 01:09:17;;;;;;;31.30;12.75;;;;;;;;;;5054002;28;20052;-91
2022/03/20 01:14:56;;;;;;;33.85;13.93;;;;;;;;;;5048796;28;20303;-90
2022/03/20 01:17:27;;;;;;;31.52;12.50;;;;;;;;;;5049752;28;20135;-89
2022/03/20 01:20:11;;;;;;;25.85;13.15;;;;;;;;;;5048030;28;20045;-90
2022/03/20 01:22:55;;;;;;;27.40;12.30;;;;;;;;;;5052869;28;20056;-90
2022/03/20 01:25:24;;;;;;;29.05;11.57;;;;;;;;;;5059568;28;20492;-90
2022/03/20 01:31:08;;;;;;;25.70;10.90;;;;;;;;;;5010834;28;20041;-90
2022/03/20 01:33:36;;;;;;;27.30;10.95;;;;;;;;;;5057069;28;20045;-90
2022/03/20 01:36:08;;;;;;;28.77;11.68;;;;;;;;;;5050234;28;20052;-90
2022/03/20 01:38:39;;;;;;;23.50;10.48;;;;;;;;;;5049384;28;20186;-90
2022/03/20 01:41:15;;;;;;;27.40;11.23;;;;;;;;;;5048340;28;20053;-90
2022/03/20 01:43:49;;;;;;;23.02;10.48;;;;;;;;;;5032452;28;20044;-89
2022/03/20 01:46:18;;;;;;;23.85;10.73;;;;;;;;;;5050517;28;20129;-90
2022/03/20 01:48:51;;;;;;;21.95;10.98;;;;;;;;;;5050096;28;20056;-90
2022/03/20 01:52:10;;;;;;;28.67;11.57;;;;;;;;;;5046793;28;20132;-89
2022/03/20 01:54:27;;;;;;;30.05;12.05;;;;;;;;;;5049643;28;20592;-90
2022/03/20 01:57:00;;;;;;;27.25;11.23;;;;;;;;;;5042439;28;20057;-90
2022/03/20 01:59:44;;;;;;;25.05;9.95;;;;;;;;;;5048284;28;20053;-89
2022/03/20 02:02:12;;;;;;;25.60;10.68;;;;;;;;;;5030493;28;20475;-90
2022/03/20 02:04:43;;;;;;;35.85;11.75;;;;;;;;;;5048695;28;20095;-90
2022/03/20 02:07:12;;;;;;;24.88;10.15;;;;;;;;;;5044818;28;20464;-90
2022/03/20 02:09:44;;;;;;;23.02;10.32;;;;;;;;;;5037848;28;20485;-90
2022/03/20 02:12:13;;;;;;;26.05;10.82;;;;;;;;;;5041736;28;20050;-90
2022/03/20 02:14:43;;;;;;;27.05;10.02;;;;;;;;;;5047856;28;20550;-90
2022/03/20 02:17:12;;;;;;;21.25;10.13;;;;;;;;;;5048750;28;20041;-89
2022/03/20 02:19:44;;;;;;;24.27;10.02;;;;;;;;;;5049237;28;20052;-90
2022/03/20 02:22:14;;;;;;;21.60;10.73;;;;;;;;;;5029631;28;20128;-89
2022/03/20 02:24:46;;;;;;;23.98;10.02;;;;;;;;;;5048378;28;20051;-90
2022/03/20 02:27:28;;;;;;;22.00;10.57;;;;;;;;;;5045954;28;20081;-89
2022/03/20 02:33:08;;;;;;;27.42;10.65;;;;;;;;;;5047607;28;20045;-90
2022/03/20 02:35:37;;;;;;;24.23;9.90;;;;;;;;;;5049153;28;20136;-89
2022/03/20 02:38:23;;;;;;;26.83;10.45;;;;;;;;;;5029472;28;20041;-90
2022/03/20 02:41:14;;;;;;;22.15;10.13;;;;;;;;;;5047269;28;20477;-90
2022/03/20 02:43:49;;;;;;;28.67;10.93;;;;;;;;;;5050830;28;20048;-90
2022/03/20 02:46:18;;;;;;;26.75;10.60;;;;;;;;;;5060516;28;20044;-90
2022/03/20 02:48:48;;;;;;;25.35;11.13;;;;;;;;;;5046412;28;20064;-90
2022/03/20 02:51:32;;;;;;;23.63;10.10;;;;;;;;;;5053439;28;20067;-90
2022/03/20 02:56:50;;;;;;;27.20;10.95;;;;;;;;;;5054479;28;20053;-90
2022/03/20 02:59:18;;;;;;;21.75;9.60;;;;;;;;;;5051485;28;20564;-89
2022/03/20 03:01:49;;;;;;;23.80;9.73;;;;;;;;;;5052485;28;20076;-91
2022/03/20 03:04:23;;;;;;;26.40;11.30;;;;;;;;;;5048860;28;20068;-90
2022/03/20 03:06:51;;;;;;;25.67;11.02;;;;;;;;;;5053030;28;20132;-90
2022/03/20 03:12:09;;;;;;;26.58;11.23;;;;;;;;;;5039760;28;20441;-90
2022/03/20 03:17:29;;;;;;;26.65;10.07;;;;;;;;;;5049059;28;20068;-89
2022/03/20 03:19:58;;;;;;;27.33;11.35;;;;;;;;;;5051382;28;20137;-90
2022/03/20 03:22:26;;;;;;;27.30;10.57;;;;;;;;;;5053442;28;20127;-89
2022/03/20 03:25:02;;;;;;;27.60;11.07;;;;;;;;;;5040029;28;20051;-89
2022/03/20 03:27:49;;;;;;;26.95;11.15;;;;;;;;;;5053841;28;20159;-90
2022/03/20 03:30:18;;;;;;;29.38;11.05;;;;;;;;;;5054548;28;20045;-89
2022/03/20 03:32:47;;;;;;;24.65;10.15;;;;;;;;;;5056506;28;20446;-90
2022/03/20 03:35:42;;;;;;;25.20;10.77;;;;;;;;;;5050465;28;20568;-90
2022/03/20 03:38:13;;;;;;;26.90;10.15;;;;;;;;;;5053332;28;20047;-90
2022/03/20 03:40:43;;;;;;;26.40;10.85;;;;;;;;;;5035106;28;20045;-90
2022/03/20 03:49:44;;;;;;;30.67;10.65;;;;;;;;;;5049979;28;20425;-91
2022/03/20 03:52:27;;;;;;;23.70;10.52;;;;;;;;;;5042277;28;20040;-90
2022/03/20 03:58:30;;;;;;;29.10;11.35;;;;;;;;;;5051229;28;20535;-91
2022/03/20 04:07:29;;;;;;;29.80;10.93;;;;;;;;;;5008105;28;20070;-91
2022/03/20 04:23:42;;;;;;;26.15;9.82;;;;;;;;;;5007416;28;20089;-91
2022/03/20 04:28:41;;;;;;;24.85;10.93;;;;;;;;;;5004450;28;20048;-90
2022/03/20 04:37:48;;;;;;;27.42;11.27;;;;;;;;;;4963982;28;20077;-90
2022/03/20 04:46:40;;;;;;;29.20;11.90;;;;;;;;;;5023443;28;20179;-93
2022/03/20 05:05:58;;;;;;;28.55;11.50;;;;;;;;;;5054701;28;20103;-91
2022/03/20 05:13:19;;;;;;;28.27;11.23;;;;;;;;;;5052909;28;20052;-91
2022/03/20 05:17:29;;;;;;;25.40;11.20;;;;;;;;;;5054954;28;20499;-91
2022/03/20 05:26:29;;;;;;;27.48;10.85;;;;;;;;;;5063212;28;20090;-90
2022/03/20 05:29:18;;;;;;;25.52;10.00;;;;;;;;;;5040281;28;20106;-92
2022/03/20 05:35:38;;;;;;;30.02;11.75;;;;;;;;;;5054526;28;20092;-91
2022/03/20 05:38:09;;;;;;;31.38;11.68;;;;;;;;;;5033891;28;20055;-91
2022/03/20 05:40:38;;;;;;;28.67;11.18;;;;;;;;;;5027152;28;20125;-89
2022/03/20 05:43:08;;;;;;;26.55;11.75;;;;;;;;;;5027620;28;20046;-89
2022/03/20 05:45:39;;;;;;;31.63;11.85;;;;;;;;;;5026270;28;20057;-90
2022/03/20 05:48:08;;;;;;;31.45;12.13;;;;;;;;;;5026193;28;20048;-90
2022/03/20 05:50:38;;;;;;;26.95;11.13;;;;;;;;;;5023838;28;20053;-89
2022/03/20 05:53:08;;;;;;;23.58;10.82;;;;;;;;;;5022485;28;20628;-89
2022/03/20 05:58:23;;;;;;;28.17;10.63;;;;;;;;;;5048917;28;20484;-88
2022/03/20 06:00:51;;;;;;;24.85;10.80;;;;;;;;;;5050195;28;20501;-90
2022/03/20 06:03:20;;;;;;;25.10;10.10;;;;;;;;;;5044231;28;20045;-88
2022/03/20 06:05:50;;;;;;;26.85;10.63;;;;;;;;;;5048763;28;20049;-88
2022/03/20 06:08:21;;;;;;;24.98;10.65;;;;;;;;;;5051879;28;20079;-88
2022/03/20 06:10:50;;;;;;;32.05;12.15;;;;;;;;;;5051624;28;20049;-89
2022/03/20 06:13:19;;;;;;;28.70;11.20;;;;;;;;;;5052217;28;20053;-89
2022/03/20 06:15:48;;;;;;;29.50;11.35;;;;;;;;;;5056564;28;20063;-89
2022/03/20 06:18:18;;;;;;;24.90;9.95;;;;;;;;;;5042879;28;20095;-88
2022/03/20 06:20:46;;;;;;;31.75;11.63;;;;;;;;;;5038218;28;20040;-88
2022/03/20 06:23:16;;;;;;;28.80;11.43;;;;;;;;;;5052127;28;20129;-89
2022/03/20 06:25:51;;;;;;;25.25;11.10;;;;;;;;;;5053721;28;20115;-90
2022/03/20 06:28:20;;;;;;;26.90;11.02;;;;;;;;;;5054193;28;20056;-88
2022/03/20 06:30:48;;;;;;;30.05;10.65;;;;;;;;;;5053065;28;20088;-88
2022/03/20 06:33:17;;;;;;;25.77;10.50;;;;;;;;;;5050426;28;20057;-88
2022/03/20 06:35:45;;;;;;;25.17;10.63;;;;;;;;;;5051944;28;20049;-88
2022/03/20 06:38:16;;;;;;;30.65;11.40;;;;;;;;;;5051458;28;20049;-88
2022/03/20 06:40:45;;;;;;;28.23;11.57;;;;;;;;;;5050704;28;20071;-88
2022/03/20 06:43:14;;;;;;;32.25;11.45;;;;;;;;;;5049939;28;20522;-88
2022/03/20 06:45:43;;;;;;;29.10;11.75;;;;;;;;;;5045233;28;20118;-88
2022/03/20 06:48:11;;;;;;;30.55;11.45;;;;;;;;;;5039372;28;20092;-87
2022/03/20 06:50:40;;;;;;;32.40;12.95;;;;;;;;;;5042417;28;20115;-87
2022/03/20 06:53:09;;;;;;;30.33;12.27;;;;;;;;;;5050396;28;20083;-88
2022/03/20 06:55:40;;;;;;;29.23;12.23;;;;;;;;;;5046113;28;20393;-88
2022/03/20 06:58:09;;;;;;;33.22;13.38;;;;;;;;;;5047001;28;20544;-89
2022/03/20 07:00:38;;;;;;;33.53;12.80;;;;;;;;;;5045075;28;20575;-88
2022/03/20 07:03:08;;;;;;;33.45;12.57;;;;;;;;;;5050668;28;20119;-90
2022/03/20 07:05:38;;;;;;;35.45;12.85;;;;;;;;;;5028948;28;20540;-88
2022/03/20 07:08:07;;;;;;;31.67;13.10;;;;;;;;;;5052703;28;20103;-89
2022/03/20 07:10:36;;;;;;;32.65;12.60;;;;;;;;;;5052269;28;20102;-88
2022/03/20 07:15:56;;;;;;;31.52;12.38;;;;;;;;;;5050659;28;20076;-88
2022/03/20 07:18:25;;;;;;;32.28;13.27;;;;;;;;;;5051778;28;20531;-88
2022/03/20 07:20:55;;;;;;;35.53;12.85;;;;;;;;;;5052718;28;20071;-88
2022/03/20 07:23:24;;;;;;;28.75;13.20;;;;;;;;;;5064085;28;20053;-88
2022/03/20 07:31:25;;;;;;;33.40;12.73;;;;;;;;;;5052540;28;20140;-88
2022/03/20 07:33:54;;;;;;;33.10;14.13;;;;;;;;;;5046986;28;20473;-88
2022/03/20 07:36:24;;;;;;;36.90;13.48;;;;;;;;;;5056379;28;20049;-88
2022/03/20 07:38:52;;;;;;;35.03;13.15;;;;;;;;;;5046179;28;20536;-88
2022/03/20 07:41:21;;;;;;;34.53;12.85;;;;;;;;;;5052619;28;20473;-88
2022/03/20 07:43:51;;;;;;;30.52;13.13;;;;;;;;;;5047886;28;20056;-88
2022/03/20 07:46:20;;;;;;;32.20;14.02;;;;;;;;;;5055803;28;20538;-88
2022/03/20 07:48:50;;;;;;;36.33;13.05;;;;;;;;;;5048259;28;20053;-88
2022/03/20 07:51:20;;;;;;;31.40;12.68;;;;;;;;;;5050144;28;20041;-88
2022/03/20 07:53:50;;;;;;;35.03;14.55;;;;;;;;;;5053021;28;20515;-88
2022/03/20 07:56:22;;;;;;;35.80;14.05;;;;;;;;;;5032217;28;20041;-88
2022/03/20 07:58:54;;;;;;;32.97;13.18;;;;;;;;;;5052502;28;20053;-89
2022/03/20 08:01:22;;;;;;;28.83;12.65;;;;;;;;;;5050259;28;20496;-88
2022/03/20 08:03:51;;;;;;;32.42;12.93;;;;;;;;;;5049466;28;20579;-87
2022/03/20 08:06:20;;;;;;;30.75;13.27;;;;;;;;;;5052600;28;20157;-87
2022/03/20 08:08:48;;;;;;;35.50;14.77;;;;;;;;;;5051303;28;20076;-88
2022/03/20 08:11:17;;;;;;;36.90;14.05;;;;;;;;;;5050248;28;20041;-88
2022/03/20 08:13:45;;;;;;;35.47;14.35;;;;;;;;;;5052725;28;20045;-88
2022/03/20 08:16:16;;;;;;;32.80;12.90;;;;;;;;;;5051250;28;20559;-88
2022/03/20 08:18:46;;;;;;;32.50;13.07;;;;;;;;;;5050817;28;20053;-89
2022/03/20 08:21:14;;;;;;;27.73;12.07;;;;;;;;;;5046711;28;20040;-88
2022/03/20 08:23:43;;;;;;;29.40;12.20;;;;;;;;;;5048399;28;20045;-88
2022/03/20 08:26:11;;;;;;;35.45;13.32;;;;;;;;;;5049107;28;20566;-88
2022/03/20 08:28:41;;;;;;;33.03;13.73;;;;;;;;;;5051397;28;20052;-88
2022/03/20 08:31:10;;;;;;;28.67;13.18;;;;;;;;;;5055188;28;20049;-89
2022/03/20 08:33:43;;;;;;;30.80;12.95;;;;;;;;;;5050623;28;20037;-89
2022/03/20 08:36:14;;;;;;;29.02;12.05;;;;;;;;;;5051513;28;20052;-89
2022/03/20 08:38:50;;;;;;;31.80;13.50;;;;;;;;;;5052023;28;20056;-88
2022/03/20 08:41:19;;;;;;;28.45;12.07;;;;;;;;;;5051994;28;20075;-88
2022/03/20 08:43:47;;;;;;;31.40;12.35;;;;;;;;;;5050222;28;20069;-89
2022/03/20 08:46:16;;;;;;;28.95;13.05;;;;;;;;;;5050013;28;20090;-88
2022/03/20 08:48:47;;;;;;;30.00;12.35;;;;;;;;;;5047035;28;20628;-89
2022/03/20 08:51:15;;;;;;;31.98;12.13;;;;;;;;;;5059880;28;20060;-88
2022/03/20 08:53:44;;;;;;;31.70;13.35;;;;;;;;;;5052669;28;20053;-88
2022/03/20 08:56:12;;;;;;;28.75;12.18;;;;;;;;;;5050564;28;20047;-87
2022/03/20 08:58:40;;;;;;;24.63;12.45;;;;;;;;;;5050921;28;20044;-87
2022/03/20 09:01:09;;;;;;;26.25;12.35;;;;;;;;;;5056380;28;20082;-89
2022/03/20 09:03:38;;;;;;;30.00;13.85;;;;;;;;;;5052587;28;20052;-89
2022/03/20 09:06:08;;;;;;;30.10;12.63;;;;;;;;;;5050500;28;20075;-89
2022/03/20 09:08:36;;;;;;;26.40;12.27;;;;;;;;;;5049170;28;20041;-88
2022/03/20 09:11:08;;;;;;;23.67;11.02;;;;;;;;;;5047207;28;20080;-88
2022/03/20 09:13:36;;;;;;;24.33;11.95;;;;;;;;;;5049024;28;20087;-88
2022/03/20 09:19:03;;;;;;;26.92;12.05;;;;;;;;;;5052674;28;20049;-87
2022/03/20 09:21:33;;;;;;;21.30;11.70;;;;;;;;;;5054201;28;20045;-88
2022/03/20 09:24:02;;;;;;;25.10;12.10;;;;;;;;;;5052688;28;20056;-88
2022/03/20 09:26:31;;;;;;;27.98;12.40;;;;;;;;;;5051976;28;20608;-88
2022/03/20 09:28:59;;;;;;;23.65;11.35;;;;;;;;;;5050517;28;20670;-88
2022/03/20 09:31:31;;;;;;;24.98;12.40;;;;;;;;;;5053149;28;20049;-88
2022/03/20 09:34:00;;;;;;;23.23;11.13;;;;;;;;;;5048731;28;20033;-88
2022/03/20 09:36:29;;;;;;;22.58;10.98;;;;;;;;;;5050141;28;20146;-88
2022/03/20 09:38:59;;;;;;;23.98;11.13;;;;;;;;;;5050821;28;20417;-88
2022/03/20 09:41:30;;;;;;;24.30;11.68;;;;;;;;;;5051397;28;20099;-88
2022/03/20 09:43:58;;;;;;;23.58;10.55;;;;;;;;;;5048868;28;20068;-88
2022/03/20 09:46:27;;;;;;;24.25;11.90;;;;;;;;;;5053217;28;20308;-89
2022/03/20 09:48:56;;;;;;;23.00;11.45;;;;;;;;;;5050993;28;20060;-89
2022/03/20 09:51:24;;;;;;;23.85;11.75;;;;;;;;;;5056280;28;20555;-89
2022/03/20 09:53:53;;;;;;;23.17;10.02;;;;;;;;;;5047055;28;20045;-89
2022/03/20 09:56:23;;;;;;;26.33;11.88;;;;;;;;;;5052891;28;20052;-89
2022/03/20 09:58:51;;;;;;;21.45;11.05;;;;;;;;;;5053093;28;20051;-90
2022/03/20 10:01:19;;;;;;;19.13;10.35;;;;;;;;;;5055685;28;20514;-87
2022/03/20 10:03:48;;;;;;;22.33;10.75;;;;;;;;;;5058003;28;20052;-88
2022/03/20 10:06:17;;;;;;;23.05;10.98;;;;;;;;;;5054486;28;20044;-87
2022/03/20 10:09:05;;;;;;;22.10;11.20;;;;;;;;;;5047059;28;20056;-87
2022/03/20 10:11:37;;;;;;;23.00;10.90;;;;;;;;;;5055429;28;20053;-87
2022/03/20 10:14:11;;;;;;;22.48;11.18;;;;;;;;;;5054037;28;20503;-88
2022/03/20 10:16:40;;;;;;;21.80;10.90;;;;;;;;;;5053586;28;20106;-88
2022/03/20 10:19:27;;;;;;;22.75;11.43;;;;;;;;;;5054879;28;20045;-88
2022/03/20 10:21:57;;;;;;;23.35;10.65;;;;;;;;;;5053214;28;20095;-88
2022/03/20 10:24:33;;;;;;;18.80;11.07;;;;;;;;;;5055255;28;20045;-88
2022/03/20 10:27:07;;;;;;;20.17;11.23;;;;;;;;;;5054537;28;20068;-88
2022/03/20 10:29:38;;;;;;;24.30;10.52;;;;;;;;;;5055898;28;20072;-87
2022/03/20 10:32:09;;;;;;;24.08;10.45;;;;;;;;;;5055888;28;20081;-87
2022/03/20 10:34:55;;;;;;;21.38;10.55;;;;;;;;;;5055567;28;20045;-88
2022/03/20 10:37:44;;;;;;;17.98;9.68;;;;;;;;;;5048192;28;20104;-88
2022/03/20 10:40:13;;;;;;;19.65;9.93;;;;;;;;;;5059493;28;20045;-87
2022/03/20 10:42:43;;;;;;;23.27;10.63;;;;;;;;;;5067637;28;20040;-88
2022/03/20 10:45:13;;;;;;;18.23;10.20;;;;;;;;;;5059860;28;20426;-88
2022/03/20 10:47:41;;;;;;;20.65;10.93;;;;;;;;;;5036200;28;20160;-88
2022/03/20 10:50:11;;;;;;;19.67;9.98;;;;;;;;;;5052704;28;20102;-87
2022/03/20 10:52:39;;;;;;;15.32;9.15;;;;;;;;;;5054119;28;20053;-87
2022/03/20 10:55:09;;;;;;;18.48;9.30;;;;;;;;;;5056775;28;20052;-87
2022/03/20 10:57:38;;;;;;;23.42;10.82;;;;;;;;;;5055631;28;20052;-88
2022/03/20 11:00:10;;;;;;;18.98;9.75;;;;;;;;;;5053576;28;20086;-88
2022/03/20 11:02:40;;;;;;;18.98;9.98;;;;;;;;;;5046792;28;20051;-89
2022/03/20 11:05:10;;;;;;;17.52;9.88;;;;;;;;;;5051446;28;20047;-88
2022/03/20 11:07:39;;;;;;;17.75;9.05;;;;;;;;;;5052748;28;20400;-88
2022/03/20 11:10:11;;;;;;;20.00;10.13;;;;;;;;;;5053622;28;20084;-88
2022/03/20 11:12:41;;;;;;;20.58;9.90;;;;;;;;;;5053464;28;20385;-88
2022/03/20 11:15:12;;;;;;;18.95;10.90;;;;;;;;;;5052378;28;20049;-88
2022/03/20 11:17:43;;;;;;;19.48;10.25;;;;;;;;;;5057974;28;20553;-88
2022/03/20 11:20:13;;;;;;;18.08;9.75;;;;;;;;;;5050484;28;20455;-89
2022/03/20 11:22:49;;;;;;;19.00;9.73;;;;;;;;;;5049586;28;20095;-88
2022/03/20 11:25:20;;;;;;;22.35;11.07;;;;;;;;;;5049249;28;20047;-88
2022/03/20 11:28:01;;;;;;;18.83;9.65;;;;;;;;;;5044427;28;20053;-87
2022/03/20 11:30:32;;;;;;;20.10;10.23;;;;;;;;;;5052302;28;20478;-86
2022/03/20 11:33:02;;;;;;;18.33;9.80;;;;;;;;;;5052791;28;20135;-87
2022/03/20 11:35:32;;;;;;;19.15;9.30;;;;;;;;;;5054002;28;20095;-88
2022/03/20 11:38:13;;;;;;;19.40;10.32;;;;;;;;;;5051685;28;20049;-88
2022/03/20 11:40:42;;;;;;;18.50;9.57;;;;;;;;;;5048848;28;20397;-89
2022/03/20 11:46:27;;;;;;;16.25;9.90;;;;;;;;;;5056057;28;20040;-91
2022/03/20 11:49:15;;;;;;;17.58;8.68;;;;;;;;;;5035856;28;20053;-90
2022/03/20 11:51:53;;;;;;;15.98;9.02;;;;;;;;;;5030489;28;20054;-89
2022/03/20 11:54:40;;;;;;;55.67;28.63;;;;;;;;;;5030046;28;20476;-89
2022/03/20 11:57:23;;;;;;;32.95;18.95;;;;;;;;;;5045990;28;20099;-91
2022/03/20 11:59:54;;;;;;;18.40;10.07;;;;;;;;;;5048746;28;20088;-90
2022/03/20 12:02:32;;;;;;;18.20;9.38;;;;;;;;;;5049703;28;20381;-89
2022/03/20 12:05:03;;;;;;;15.80;9.02;;;;;;;;;;5047647;28;20061;-91
2022/03/20 12:07:40;;;;;;;17.27;9.57;;;;;;;;;;5054479;28;20080;-91
2022/03/20 12:10:18;;;;;;;34.97;25.05;;;;;;;;;;5051190;28;20110;-91
2022/03/20 12:13:04;;;;;;;17.90;10.32;;;;;;;;;;5043176;28;20068;-91
2022/03/20 12:15:33;;;;;;;21.17;13.82;;;;;;;;;;5045847;28;20092;-91
2022/03/20 12:18:04;;;;;;;20.38;13.20;;;;;;;;;;5049486;28;20139;-91
2022/03/20 12:20:59;;;;;;;19.00;10.40;;;;;;;;;;5067037;28;20044;-92
2022/03/20 12:23:49;;;;;;;18.70;10.75;;;;;;;;;;5046125;28;20473;-91
2022/03/20 12:26:36;;;;;;;18.70;9.25;;;;;;;;;;5051672;28;20146;-91
2022/03/20 12:29:23;;;;;;;22.13;12.32;;;;;;;;;;5053241;28;20083;-91
2022/03/20 12:31:55;;;;;;;13.55;8.02;;;;;;;;;;5048774;28;20111;-91
2022/03/20 12:34:40;;;;;;;14.27;8.13;;;;;;;;;;5052131;28;20071;-91
2022/03/20 12:37:32;;;;;;;15.25;8.55;;;;;;;;;;5053496;28;20296;-91
2022/03/20 12:40:19;;;;;;;18.65;9.70;;;;;;;;;;5047238;28;20497;-92
2022/03/20 12:43:13;;;;;;;17.20;8.90;;;;;;;;;;5051474;28;20554;-92
2022/03/20 12:45:43;;;;;;;18.40;10.50;;;;;;;;;;5051171;28;20301;-92
2022/03/20 12:48:25;;;;;;;18.17;9.75;;;;;;;;;;5046852;28;20045;-91
2022/03/20 12:51:00;;;;;;;16.10;9.48;;;;;;;;;;5051059;28;20326;-92
2022/03/20 12:53:38;;;;;;;16.83;9.02;;;;;;;;;;5051036;28;20056;-90
2022/03/20 12:56:19;;;;;;;19.75;9.65;;;;;;;;;;5046388;28;20082;-91
2022/03/20 12:58:56;;;;;;;19.65;9.70;;;;;;;;;;5049003;28;20112;-91
2022/03/20 13:01:28;;;;;;;16.73;9.70;;;;;;;;;;5050855;28;20051;-91
2022/03/20 13:04:14;;;;;;;18.67;9.90;;;;;;;;;;5049323;28;20049;-91
2022/03/20 13:06:43;;;;;;;16.17;9.07;;;;;;;;;;5055367;28;20060;-91
2022/03/20 13:09:13;;;;;;;15.23;9.10;;;;;;;;;;5048718;28;20163;-91
2022/03/20 13:11:56;;;;;;;16.40;10.05;;;;;;;;;;5053054;28;20045;-91
2022/03/20 13:14:28;;;;;;;17.30;8.48;;;;;;;;;;5052017;28;20044;-91
2022/03/20 13:16:58;;;;;;;17.17;9.48;;;;;;;;;;5047961;28;20080;-90
2022/03/20 13:19:28;;;;;;;19.27;9.02;;;;;;;;;;5049620;28;20128;-90
2022/03/20 13:21:57;;;;;;;17.52;8.57;;;;;;;;;;5034487;28;20068;-90
2022/03/20 13:24:34;;;;;;;18.58;9.10;;;;;;;;;;5050726;28;20554;-91
2022/03/20 13:27:03;;;;;;;15.82;8.60;;;;;;;;;;5049732;28;20095;-89
2022/03/20 13:29:33;;;;;;;16.80;8.73;;;;;;;;;;5057153;28;20072;-90
2022/03/20 13:32:03;;;;;;;16.02;9.18;;;;;;;;;;5050746;28;20059;-90
2022/03/20 13:34:32;;;;;;;18.55;9.95;;;;;;;;;;5059037;28;20049;-89
2022/03/20 13:37:07;;;;;;;18.20;10.10;;;;;;;;;;5051992;28;20117;-89
2022/03/20 13:39:36;;;;;;;15.60;7.88;;;;;;;;;;5047734;28;20049;-89
2022/03/20 13:42:18;;;;;;;18.92;9.63;;;;;;;;;;5050846;28;20053;-89
2022/03/20 13:44:48;;;;;;;15.82;7.95;;;;;;;;;;5052027;28;20049;-88
2022/03/20 13:47:17;;;;;;;17.77;8.40;;;;;;;;;;5046184;28;20401;-90
2022/03/20 13:49:46;;;;;;;17.30;8.52;;;;;;;;;;5048208;28;20098;-87
2022/03/20 13:52:18;;;;;;;16.27;8.80;;;;;;;;;;5050648;28;20041;-89
2022/03/20 13:54:59;;;;;;;15.52;9.57;;;;;;;;;;5052363;28;20041;-88
2022/03/20 13:57:30;;;;;;;18.52;9.85;;;;;;;;;;5051180;28;20080;-88
2022/03/20 14:00:04;;;;;;;17.10;8.85;;;;;;;;;;5051142;28;20126;-89
2022/03/20 14:02:39;;;;;;;17.27;8.65;;;;;;;;;;5052022;28;20049;-89
2022/03/20 14:05:11;;;;;;;19.10;9.55;;;;;;;;;;5050936;28;20049;-89
2022/03/20 14:07:40;;;;;;;18.77;9.70;;;;;;;;;;5050716;28;20080;-89
2022/03/20 14:10:18;;;;;;;16.02;8.30;;;;;;;;;;5051385;28;20049;-90
2022/03/20 14:12:47;;;;;;;17.65;9.52;;;;;;;;;;5048257;28;20057;-89
2022/03/20 14:15:17;;;;;;;16.35;9.88;;;;;;;;;;5052012;28;20109;-88
2022/03/20 14:17:46;;;;;;;17.58;9.48;;;;;;;;;;5051221;28;20072;-88
2022/03/20 14:20:16;;;;;;;18.40;9.80;;;;;;;;;;5049336;28;20048;-89
2022/03/20 14:22:46;;;;;;;18.67;8.85;;;;;;;;;;5053952;28;20084;-89
2022/03/20 14:25:37;;;;;;;16.65;9.15;;;;;;;;;;5051521;28;20472;-89
2022/03/20 14:28:06;;;;;;;20.75;8.82;;;;;;;;;;5054237;28;20072;-89
2022/03/20 14:41:51;;;;;;;19.90;9.50;;;;;;;;;;5049106;28;20052;-89
2022/03/20 14:44:21;;;;;;;17.65;8.55;;;;;;;;;;5062595;28;20545;-89
2022/03/20 14:46:52;;;;;;;16.38;8.98;;;;;;;;;;5071995;28;20048;-89
2022/03/20 14:49:21;;;;;;;19.35;8.93;;;;;;;;;;5054520;28;20493;-89
2022/03/20 14:51:51;;;;;;;15.90;9.00;;;;;;;;;;5056335;28;20083;-89
2022/03/20 14:54:19;;;;;;;15.85;8.93;;;;;;;;;;5055145;28;20386;-88
2022/03/20 14:56:47;;;;;;;19.13;8.70;;;;;;;;;;5055153;28;20057;-89
2022/03/20 14:59:16;;;;;;;18.52;8.77;;;;;;;;;;5055708;28;20052;-89
2022/03/20 15:01:45;;;;;;;16.73;8.60;;;;;;;;;;5056782;28;20107;-89
2022/03/20 15:04:17;;;;;;;18.85;9.23;;;;;;;;;;5054633;28;20044;-88
2022/03/20 15:06:47;;;;;;;17.42;8.63;;;;;;;;;;5052432;28;20045;-88
2022/03/20 15:12:02;;;;;;;16.08;8.18;;;;;;;;;;5053339;28;20056;-89
2022/03/20 15:14:30;;;;;;;17.10;8.93;;;;;;;;;;5054164;28;20049;-89
2022/03/20 15:16:59;;;;;;;16.63;9.85;;;;;;;;;;5054620;28;20060;-88
2022/03/20 15:19:29;;;;;;;17.55;8.52;;;;;;;;;;5053660;28;20404;-87
2022/03/20 15:21:57;;;;;;;15.27;8.65;;;;;;;;;;5055008;28;20041;-89
2022/03/20 15:24:26;;;;;;;16.48;8.13;;;;;;;;;;5037112;28;20053;-89
2022/03/20 15:26:55;;;;;;;18.63;8.32;;;;;;;;;;5067075;28;20067;-89
2022/03/20 15:29:24;;;;;;;17.95;8.40;;;;;;;;;;5059213;28;20064;-88
2022/03/20 15:31:57;;;;;;;15.50;8.50;;;;;;;;;;5066252;28;20041;-88
2022/03/20 15:37:55;;;;;;;17.38;8.57;;;;;;;;;;5044850;28;20064;-88
2022/03/20 15:40:23;;;;;;;17.75;8.88;;;;;;;;;;5055717;28;20416;-89
2022/03/20 15:42:52;;;;;;;18.67;9.05;;;;;;;;;;5052099;28;20045;-89
2022/03/20 15:45:20;;;;;;;21.33;9.10;;;;;;;;;;5060553;28;20451;-88
2022/03/20 15:47:49;;;;;;;17.02;9.02;;;;;;;;;;5055028;28;20105;-89
2022/03/20 15:50:18;;;;;;;18.75;9.20;;;;;;;;;;5053186;28;20415;-88
2022/03/20 15:52:47;;;;;;;17.55;8.32;;;;;;;;;;5062193;28;20051;-87
2022/03/20 15:55:19;;;;;;;18.00;8.20;;;;;;;;;;5047496;28;20076;-90
2022/03/20 15:57:52;;;;;;;16.83;8.75;;;;;;;;;;5047292;28;20124;-89
2022/03/20 16:00:21;;;;;;;15.30;8.43;;;;;;;;;;5051236;28;20141;-89
2022/03/20 16:02:49;;;;;;;16.15;7.93;;;;;;;;;;5046295;28;20122;-88
2022/03/20 16:05:30;;;;;;;15.50;8.85;;;;;;;;;;5052649;28;20041;-89
2022/03/20 16:07:59;;;;;;;16.40;8.43;;;;;;;;;;5053341;28;20044;-89
2022/03/20 16:10:28;;;;;;;15.23;8.25;;;;;;;;;;5060231;28;20591;-89
2022/03/20 16:13:01;;;;;;;15.00;8.13;;;;;;;;;;5047392;28;20099;-88
2022/03/20 16:15:29;;;;;;;14.35;7.65;;;;;;;;;;5053710;28;20053;-89
2022/03/20 16:18:01;;;;;;;15.25;7.93;;;;;;;;;;5049049;28;20064;-89
2022/03/20 16:20:30;;;;;;;16.45;7.72;;;;;;;;;;5050518;28;20059;-89
2022/03/20 16:28:35;;;;;;;15.93;7.95;;;;;;;;;;5047713;28;20080;-89
2022/03/20 16:31:10;;;;;;;16.48;8.30;;;;;;;;;;5051792;28;20092;-89
2022/03/20 16:33:41;;;;;;;15.00;7.57;;;;;;;;;;5068500;28;20055;-89
2022/03/20 16:36:10;;;;;;;16.42;8.50;;;;;;;;;;5054382;28;20436;-89
2022/03/20 16:38:40;;;;;;;13.70;7.90;;;;;;;;;;5051501;28;20053;-89
2022/03/20 16:41:11;;;;;;;14.15;7.80;;;;;;;;;;5053321;28;20139;-89
2022/03/20 16:43:40;;;;;;;15.43;8.02;;;;;;;;;;5053119;28;20061;-89
2022/03/20 16:46:08;;;;;;;16.85;8.90;;;;;;;;;;5039235;28;20057;-90
2022/03/20 16:48:41;;;;;;;15.90;8.30;;;;;;;;;;5048303;28;20087;-90
2022/03/20 16:51:13;;;;;;;14.73;7.72;;;;;;;;;;5041215;28;20091;-89
2022/03/20 16:53:41;;;;;;;15.63;7.57;;;;;;;;;;5043699;28;20064;-90
2022/03/20 16:56:12;;;;;;;16.48;7.40;;;;;;;;;;5047683;28;20070;-88
2022/03/20 16:58:43;;;;;;;16.10;7.47;;;;;;;;;;5044561;28;20036;-89
2022/03/20 17:01:13;;;;;;;16.63;7.18;;;;;;;;;;5043720;28;20370;-88
2022/03/20 17:03:42;;;;;;;16.13;7.90;;;;;;;;;;5049164;28;20041;-89
2022/03/20 17:06:11;;;;;;;16.25;7.95;;;;;;;;;;5045734;28;20060;-90
2022/03/20 17:08:40;;;;;;;15.05;8.00;;;;;;;;;;5047373;28;20053;-89
2022/03/20 17:11:09;;;;;;;17.30;7.90;;;;;;;;;;5049219;28;20048;-89
2022/03/20 17:13:39;;;;;;;15.55;7.88;;;;;;;;;;5050849;28;20056;-89
2022/03/20 17:16:11;;;;;;;13.80;7.07;;;;;;;;;;5047909;28;20083;-88
2022/03/20 17:18:42;;;;;;;21.40;8.70;;;;;;;;;;5061594;28;22514;-89
2022/03/20 17:21:11;;;;;;;13.77;7.00;;;;;;;;;;5048394;28;20077;-90
2022/03/20 17:23:40;;;;;;;14.95;7.35;;;;;;;;;;5049034;28;20050;-89
2022/03/20 17:26:09;;;;;;;15.13;7.90;;;;;;;;;;5049467;28;20164;-88